Time;durP1;ratioP1;P1;durP2;ratioP2;P2;SDS_P1;SDS_P2;PMS_P1;PMS_P2;Temp;Humidity;BMP_temperature;BMP_pressure;BME280_temperature;BME280_humidity;BME280_pressure;Samples;Min_cycle;Max_cycle;Signal;HPM_P1;HPM_P2
2021/04/05 00:01:07;;;;;;;27.83;19.42;;;;;;;4.58;74.76;101236.41;5271129;28;20416;-71
2021/04/05 00:03:38;;;;;;;31.60;18.23;;;;;;;4.56;75.30;101228.72;5267739;28;20527;-71
2021/04/05 00:06:10;;;;;;;30.88;18.92;;;;;;;4.56;74.62;101231.31;5268225;28;20036;-71
2021/04/05 00:08:41;;;;;;;30.48;17.58;;;;;;;4.56;74.56;101226.13;5267638;28;20469;-71
2021/04/05 00:11:13;;;;;;;27.60;18.73;;;;;;;4.58;74.90;101224.28;5270166;28;20021;-70
2021/04/05 00:13:45;;;;;;;26.02;17.85;;;;;;;4.60;74.44;101216.41;5268781;28;20039;-71
2021/04/05 00:16:18;;;;;;;32.23;18.97;;;;;;;4.60;74.85;101214.66;5266067;28;20408;-71
2021/04/05 00:18:50;;;;;;;31.48;18.90;;;;;;;4.56;75.08;101213.16;5268136;28;20111;-73
2021/04/05 00:21:22;;;;;;;28.52;18.27;;;;;;;4.60;74.31;101206.88;5269927;28;20551;-71
2021/04/05 00:23:54;;;;;;;27.35;18.40;;;;;;;4.60;74.52;101196.50;5266456;28;20013;-71
2021/04/05 00:26:25;;;;;;;30.23;18.73;;;;;;;4.59;74.78;101187.03;5272178;28;20497;-71
2021/04/05 00:28:56;;;;;;;29.83;17.58;;;;;;;4.59;75.41;101173.22;5265551;28;20367;-70
2021/04/05 00:31:28;;;;;;;29.08;17.45;;;;;;;4.61;74.85;101172.22;5268592;28;20453;-71
2021/04/05 00:33:59;;;;;;;28.80;17.95;;;;;;;4.60;74.80;101159.34;5266340;28;20489;-71
2021/04/05 00:36:30;;;;;;;26.83;16.73;;;;;;;4.60;74.65;101154.13;5268297;28;20528;-71
2021/04/05 00:39:05;;;;;;;26.40;17.67;;;;;;;4.59;74.73;101153.31;5267334;28;20340;-71
2021/04/05 00:41:36;;;;;;;29.75;16.98;;;;;;;4.56;75.13;101142.25;5269346;28;20397;-71
2021/04/05 00:44:08;;;;;;;29.88;17.48;;;;;;;4.60;74.74;101139.41;5268620;28;20037;-72
2021/04/05 00:46:41;;;;;;;30.05;18.08;;;;;;;4.59;75.34;101137.75;5264140;28;20028;-71
2021/04/05 00:49:12;;;;;;;30.58;17.92;;;;;;;4.59;74.72;101129.94;5264694;28;20056;-71
2021/04/05 00:51:44;;;;;;;32.25;18.73;;;;;;;4.62;75.37;101126.31;5250524;28;20048;-71
2021/04/05 00:54:15;;;;;;;23.48;16.88;;;;;;;4.63;75.43;101130.63;5266415;28;20025;-71
2021/04/05 00:56:47;;;;;;;31.73;17.88;;;;;;;4.65;74.65;101118.38;5267842;28;20082;-71
2021/04/05 00:59:19;;;;;;;30.10;18.58;;;;;;;4.64;75.01;101112.34;5266310;28;20032;-71
2021/04/05 01:01:50;;;;;;;25.20;16.88;;;;;;;4.66;74.63;101114.03;5267545;28;20025;-71
2021/04/05 01:04:22;;;;;;;26.05;17.83;;;;;;;4.66;75.13;101107.09;5267253;28;20033;-71
2021/04/05 01:06:53;;;;;;;29.20;17.40;;;;;;;4.66;75.08;101109.69;5243777;28;20028;-71
2021/04/05 01:09:24;;;;;;;26.88;16.55;;;;;;;4.67;75.38;101097.56;5266527;28;20025;-71
2021/04/05 01:11:55;;;;;;;34.70;17.02;;;;;;;4.66;74.50;101085.47;5248013;28;20368;-71
2021/04/05 01:14:27;;;;;;;27.23;17.30;;;;;;;4.65;74.98;101087.25;5265174;28;20036;-71
2021/04/05 01:16:58;;;;;;;27.30;17.10;;;;;;;4.64;75.04;101081.22;5265746;28;20024;-71
2021/04/05 01:19:29;;;;;;;29.35;17.33;;;;;;;4.64;75.29;101062.22;5267179;28;20053;-71
2021/04/05 01:22:01;;;;;;;27.70;17.70;;;;;;;4.61;75.18;101065.81;5268295;28;20462;-71
2021/04/05 01:24:32;;;;;;;32.03;17.80;;;;;;;4.63;75.00;101058.78;5267438;28;20032;-71
2021/04/05 01:27:04;;;;;;;33.92;18.45;;;;;;;4.64;75.59;101049.25;5266255;28;20307;-71
2021/04/05 01:29:37;;;;;;;25.15;17.05;;;;;;;4.65;75.09;101053.50;5267276;28;20029;-72
2021/04/05 01:32:08;;;;;;;28.70;17.70;;;;;;;4.60;75.51;101056.38;5268127;28;20029;-71
2021/04/05 01:34:40;;;;;;;29.55;17.58;;;;;;;4.63;74.55;101053.59;5266297;28;20290;-69
2021/04/05 01:37:11;;;;;;;29.15;17.08;;;;;;;4.66;74.97;101051.75;5267608;28;20369;-70
2021/04/05 01:39:42;;;;;;;31.50;16.63;;;;;;;4.63;75.58;101035.44;5266232;28;20025;-69
2021/04/05 01:42:13;;;;;;;22.75;16.15;;;;;;;4.64;74.99;101054.44;5267078;28;20151;-70
2021/04/05 01:44:45;;;;;;;32.60;16.50;;;;;;;4.58;74.96;101042.66;5265303;28;20029;-69
2021/04/05 01:47:16;;;;;;;27.98;16.02;;;;;;;4.66;75.37;101047.41;5266489;28;20030;-70
2021/04/05 01:49:47;;;;;;;26.77;15.13;;;;;;;4.68;75.60;101036.94;5264364;28;20561;-70
2021/04/05 01:52:19;;;;;;;30.00;16.80;;;;;;;4.70;74.84;101027.28;5250524;28;20078;-70
2021/04/05 01:54:50;;;;;;;24.75;15.32;;;;;;;4.73;75.12;101030.53;5268022;28;20112;-70
2021/04/05 01:57:21;;;;;;;26.30;15.70;;;;;;;4.74;74.66;101021.84;5266407;28;20036;-70
2021/04/05 01:59:53;;;;;;;27.25;14.88;;;;;;;4.74;75.19;101002.84;5267053;28;20036;-70
2021/04/05 02:02:24;;;;;;;32.92;16.38;;;;;;;4.74;75.28;100992.47;5261520;28;20021;-70
2021/04/05 02:04:56;;;;;;;32.80;16.23;;;;;;;4.74;75.18;100988.13;5265994;28;20032;-71
2021/04/05 02:07:27;;;;;;;28.63;15.35;;;;;;;4.75;75.31;100988.94;5263229;28;20478;-70
2021/04/05 02:09:59;;;;;;;30.20;16.20;;;;;;;4.72;75.17;100969.19;5249008;28;20059;-70
2021/04/05 02:12:30;;;;;;;27.75;15.57;;;;;;;4.77;75.36;100974.97;5266917;28;20042;-70
2021/04/05 02:15:09;;;;;;;27.67;16.13;;;;;;;4.77;75.15;100963.72;5265649;28;20067;-70
2021/04/05 02:17:40;;;;;;;26.90;15.93;;;;;;;4.77;75.60;100967.19;5265644;28;20077;-71
2021/04/05 02:20:15;;;;;;;29.95;15.43;;;;;;;4.76;76.04;100969.84;5266204;28;20029;-70
2021/04/05 02:22:49;;;;;;;31.08;15.20;;;;;;;4.75;75.67;100966.41;5260867;28;20047;-70
2021/04/05 02:25:23;;;;;;;37.15;17.48;;;;;;;4.72;76.19;100960.56;5240829;28;20037;-70
2021/04/05 02:27:55;;;;;;;;;;;;;;;4.85;75.18;100959.78;5264054;28;20160;-70
2021/04/05 02:30:28;;;;;;;26.48;15.32;;;;;;;4.76;75.98;100962.88;5261493;28;19912;-70
2021/04/05 02:33:03;;;;;;;;;;;;;;;4.86;76.09;100961.44;5264476;28;20055;-70
2021/04/05 02:35:35;;;;;;;29.73;14.95;;;;;;;4.77;76.31;100946.41;5263689;28;19970;-70
2021/04/05 02:38:06;;;;;;;30.10;16.08;;;;;;;4.80;77.10;100954.00;5265222;28;20029;-70
2021/04/05 02:40:38;;;;;;;27.80;14.98;;;;;;;4.79;76.53;100930.75;5264072;28;20032;-70
2021/04/05 02:43:11;;;;;;;33.83;16.52;;;;;;;4.82;76.26;100943.53;5267248;28;20071;-70
2021/04/05 02:45:43;;;;;;;30.90;15.93;;;;;;;4.79;77.03;100926.38;5266201;28;20025;-70
2021/04/05 02:48:15;;;;;;;29.40;16.35;;;;;;;4.81;77.18;100931.47;5246889;28;20075;-70
2021/04/05 02:50:47;;;;;;;33.65;15.80;;;;;;;4.80;77.43;100922.84;5267832;28;20024;-70
2021/04/05 02:53:19;;;;;;;33.22;16.20;;;;;;;4.82;77.80;100917.59;5265587;28;20028;-70
2021/04/05 02:55:51;;;;;;;31.57;16.07;;;;;;;4.81;77.86;100905.50;5266250;28;20031;-70
2021/04/05 02:58:22;;;;;;;31.42;16.10;;;;;;;4.78;77.85;100895.34;5265122;28;20032;-70
2021/04/05 03:00:54;;;;;;;36.45;17.00;;;;;;;4.80;77.94;100890.88;5263101;28;20028;-70
2021/04/05 03:03:25;;;;;;;32.13;16.13;;;;;;;4.81;78.21;100892.53;5265736;28;20477;-70
2021/04/05 03:05:56;;;;;;;30.73;16.17;;;;;;;4.78;78.37;100888.38;5264122;28;20039;-70
2021/04/05 03:08:28;;;;;;;32.30;16.27;;;;;;;4.79;78.41;100890.03;5264601;28;20057;-70
2021/04/05 03:11:00;;;;;;;32.88;16.40;;;;;;;4.75;78.60;100887.72;5264649;28;20038;-70
2021/04/05 03:13:34;;;;;;;33.47;16.10;;;;;;;4.73;78.42;100887.81;5265882;28;20039;-70
2021/04/05 03:16:10;;;;;;;32.28;16.55;;;;;;;4.73;79.48;100868.81;5264839;28;20473;-70
2021/04/05 03:18:43;;;;;;;26.83;16.42;;;;;;;4.71;78.55;100865.47;5264201;28;20060;-70
2021/04/05 03:21:16;;;;;;;35.25;16.67;;;;;;;4.69;79.46;100865.56;5255062;28;20458;-70
2021/04/05 03:23:48;;;;;;;;;;;;;;;4.81;78.54;100856.19;5265415;28;20375;-71
2021/04/05 03:26:19;;;;;;;32.72;16.75;;;;;;;4.68;80.28;100852.69;5247966;28;19922;-71
2021/04/05 03:28:51;;;;;;;33.22;18.02;;;;;;;4.68;79.99;100844.91;5264364;28;20032;-71
2021/04/05 03:31:26;;;;;;;32.17;17.90;;;;;;;4.68;80.53;100843.13;5247765;28;20029;-70
2021/04/05 03:34:08;;;;;;;42.47;18.88;;;;;;;4.69;80.35;100836.19;5264503;28;20401;-70
2021/04/05 03:36:46;;;;;;;33.75;19.98;;;;;;;4.69;80.75;100820.63;5265498;28;20043;-71
2021/04/05 03:39:18;;;;;;;37.38;18.85;;;;;;;4.67;81.21;100820.72;5264626;28;20028;-70
2021/04/05 03:41:49;;;;;;;35.97;18.38;;;;;;;4.68;81.04;100812.00;5263987;28;20170;-70
2021/04/05 03:44:46;;;;;;;40.80;19.20;;;;;;;4.71;80.45;100805.78;5263801;28;20044;-70
2021/04/05 03:47:27;;;;;;;42.17;20.13;;;;;;;4.68;81.57;100809.41;5264506;28;20783;-70
2021/04/05 03:50:17;;;;;;;35.85;19.02;;;;;;;4.73;80.49;100798.72;5264460;28;20060;-70
2021/04/05 03:53:13;;;;;;;46.28;20.65;;;;;;;4.76;81.61;100801.16;5267648;28;20025;-70
2021/04/05 03:55:55;;;;;;;35.42;20.25;;;;;;;4.75;81.98;100795.13;5264356;28;20033;-70
2021/04/05 03:58:30;;;;;;;40.25;20.63;;;;;;;4.79;81.65;100791.41;5264572;28;20044;-70
2021/04/05 04:01:06;;;;;;;39.42;21.55;;;;;;;4.85;81.79;100782.44;5256884;28;20032;-70
2021/04/05 04:06:32;;;;;;;42.85;21.05;;;;;;;4.92;81.50;100769.88;5259444;28;20514;-70
2021/04/05 04:09:05;;;;;;;35.00;21.38;;;;;;;4.93;82.02;100764.63;5264091;28;20564;-70
2021/04/05 04:11:39;;;;;;;48.30;21.77;;;;;;;4.99;81.67;100763.38;5264985;28;20035;-71
2021/04/05 04:14:13;;;;;;;46.63;22.60;;;;;;;5.03;81.68;100760.50;5268968;28;20024;-71
2021/04/05 04:16:47;;;;;;;42.88;22.02;;;;;;;5.04;81.82;100758.75;5253620;28;20028;-71
2021/04/05 04:19:20;;;;;;;39.88;22.60;;;;;;;5.08;81.80;100752.44;5250929;28;20029;-70
2021/04/05 04:21:52;;;;;;;43.13;24.15;;;;;;;5.13;81.44;100753.78;5269016;28;20049;-70
2021/04/05 04:24:25;;;;;;;44.42;23.95;;;;;;;5.17;81.75;100753.59;5267240;28;20185;-70
2021/04/05 04:26:56;;;;;;;46.03;24.35;;;;;;;5.19;82.27;100750.00;5245433;28;20059;-70
2021/04/05 04:29:28;;;;;;;57.55;24.23;;;;;;;5.22;81.80;100744.56;5266595;28;20170;-72
2021/04/05 04:32:00;;;;;;;44.13;23.70;;;;;;;5.24;81.98;100740.13;5268490;28;20024;-70
2021/04/05 04:34:31;;;;;;;44.33;24.13;;;;;;;5.26;81.92;100746.03;5267332;28;20107;-71
2021/04/05 04:37:03;;;;;;;46.42;25.40;;;;;;;5.27;81.91;100744.31;5265848;28;20121;-71
2021/04/05 04:39:35;;;;;;;42.42;22.60;;;;;;;5.29;82.13;100737.22;5269673;28;20428;-71
2021/04/05 04:42:07;;;;;;;43.53;24.88;;;;;;;5.30;81.98;100733.69;5242430;28;20024;-71
2021/04/05 04:44:39;;;;;;;47.75;24.33;;;;;;;5.31;82.18;100731.00;5267231;28;20089;-70
2021/04/05 04:47:11;;;;;;;47.05;24.75;;;;;;;5.32;82.03;100717.09;5265120;28;20474;-70
2021/04/05 04:49:46;;;;;;;42.78;23.73;;;;;;;5.39;81.66;100717.53;5266397;28;20102;-70
2021/04/05 04:52:20;;;;;;;46.47;23.23;;;;;;;5.38;81.63;100715.88;5268742;28;20028;-70
2021/04/05 04:54:52;;;;;;;45.75;23.77;;;;;;;5.40;81.71;100710.56;5267396;28;20032;-70
2021/04/05 04:57:23;;;;;;;48.80;25.45;;;;;;;5.40;81.63;100706.19;5268108;28;20493;-70
2021/04/05 04:59:54;;;;;;;49.90;25.02;;;;;;;5.44;81.69;100707.66;5249358;28;20082;-71
2021/04/05 05:02:26;;;;;;;46.65;25.20;;;;;;;5.47;82.07;100699.66;5267178;28;20411;-70
2021/04/05 05:04:59;;;;;;;46.50;24.83;;;;;;;5.49;82.74;100690.03;5268047;28;20033;-71
2021/04/05 05:07:33;;;;;;;49.95;25.25;;;;;;;5.52;82.60;100694.16;5267473;28;20025;-71
2021/04/05 05:10:05;;;;;;;;;;;;;;;5.65;81.22;100702.00;5267586;28;20042;-71
2021/04/05 05:12:37;;;;;;;41.40;23.65;;;;;;;5.54;82.15;100685.34;5266645;28;19913;-71
2021/04/05 05:15:11;;;;;;;40.03;23.30;;;;;;;5.55;82.39;100673.19;5265694;28;20385;-71
2021/04/05 05:17:45;;;;;;;43.53;23.27;;;;;;;5.59;81.92;100674.63;5267953;28;20090;-71
2021/04/05 05:20:17;;;;;;;;;;;;;;;5.71;81.90;100670.38;5268315;28;20052;-71
2021/04/05 05:23:00;;;;;;;47.47;24.15;;;;;;;5.67;82.39;100668.91;5268297;28;19966;-71
2021/04/05 05:25:33;;;;;;;46.72;23.45;;;;;;;5.67;81.94;100671.53;5267041;28;20033;-71
2021/04/05 05:28:07;;;;;;;48.35;23.88;;;;;;;5.70;82.00;100663.53;5245609;28;20031;-71
2021/04/05 05:30:41;;;;;;;41.42;21.75;;;;;;;5.79;81.97;100660.28;5266680;28;20021;-70
2021/04/05 05:33:13;;;;;;;43.33;23.45;;;;;;;5.80;82.61;100657.59;5268884;28;20385;-71
2021/04/05 05:35:46;;;;;;;43.27;22.83;;;;;;;5.85;82.52;100657.28;5268429;28;20043;-70
2021/04/05 05:38:21;;;;;;;46.28;25.40;;;;;;;5.90;82.33;100657.78;5265480;28;20056;-71
2021/04/05 05:40:54;;;;;;;40.88;23.08;;;;;;;5.93;82.67;100654.19;5266413;28;20042;-71
2021/04/05 05:43:35;;;;;;;41.58;22.05;;;;;;;6.00;82.52;100645.03;5266079;28;20687;-71
2021/04/05 05:46:37;;;;;;;40.55;22.77;;;;;;;6.03;82.21;100644.84;5267795;28;20037;-71
2021/04/05 05:49:16;;;;;;;43.83;21.73;;;;;;;6.07;82.39;100641.09;5267859;28;20425;-71
2021/04/05 05:51:56;;;;;;;45.83;23.40;;;;;;;6.09;82.13;100639.19;5266921;28;20039;-70
2021/04/05 05:54:45;;;;;;;44.05;23.25;;;;;;;6.08;81.86;100643.56;5266956;28;20065;-71
2021/04/05 05:57:36;;;;;;;43.50;22.20;;;;;;;6.14;82.00;100638.88;5266751;28;20041;-70
2021/04/05 06:00:13;;;;;;;45.83;22.80;;;;;;;6.13;81.95;100626.81;5267240;28;20067;-69
2021/04/05 06:02:53;;;;;;;43.42;23.98;;;;;;;6.15;81.94;100627.53;5266103;28;20036;-70
2021/04/05 06:05:59;;;;;;;43.85;22.92;;;;;;;6.20;81.75;100625.44;5252986;28;20045;-69
2021/04/05 06:09:08;;;;;;;48.60;23.63;;;;;;;6.21;81.36;100620.16;5265692;28;20067;-69
2021/04/05 06:11:55;;;;;;;44.45;23.08;;;;;;;6.20;81.73;100625.44;5265659;28;20034;-70
2021/04/05 06:14:54;;;;;;;47.10;23.45;;;;;;;6.25;81.40;100615.53;5263917;28;20078;-71
2021/04/05 06:17:31;;;;;;;40.20;22.20;;;;;;;6.23;82.32;100609.63;5256335;28;20033;-72
2021/04/05 06:20:24;;;;;;;44.35;22.02;;;;;;;6.25;82.42;100605.13;5255719;28;20404;-72
2021/04/05 06:23:29;;;;;;;41.15;22.05;;;;;;;6.26;82.66;100605.03;5266153;28;20029;-71
2021/04/05 06:26:11;;;;;;;39.78;21.02;;;;;;;6.22;82.90;100603.59;5265657;28;20580;-72
2021/04/05 06:28:57;;;;;;;39.80;22.63;;;;;;;6.22;83.21;100624.41;5263729;28;20603;-71
2021/04/05 06:31:56;;;;;;;38.88;20.58;;;;;;;6.29;83.95;100682.06;5265062;28;20116;-71
2021/04/05 06:34:44;;;;;;;26.23;12.02;;;;;;;6.18;81.41;100700.16;5265028;28;20111;-71
2021/04/05 06:37:30;;;;;;;8.10;3.40;;;;;;;5.93;77.92;100703.59;5265852;28;20119;-71
2021/04/05 06:40:07;;;;;;;6.45;2.35;;;;;;;5.67;79.08;100700.94;5264307;28;20358;-71
2021/04/05 06:43:16;;;;;;;6.68;2.65;;;;;;;5.56;80.00;100696.44;5264222;28;20036;-70
2021/04/05 06:46:14;;;;;;;9.80;2.63;;;;;;;5.45;81.31;100706.72;5264427;28;20036;-71
2021/04/05 06:49:24;;;;;;;7.47;1.77;;;;;;;5.37;80.14;100696.00;5250936;28;20025;-71
2021/04/05 06:52:03;;;;;;;7.78;1.85;;;;;;;5.13;80.51;100691.47;5264625;28;20063;-70
2021/04/05 06:54:52;;;;;;;6.15;1.45;;;;;;;5.12;80.91;100707.16;5264277;28;20116;-70
2021/04/05 06:57:34;;;;;;;8.30;1.90;;;;;;;4.99;81.65;100704.50;5264171;28;20154;-70
2021/04/05 07:00:20;;;;;;;5.60;1.50;;;;;;;5.01;80.70;100712.19;5265840;28;20581;-70
2021/04/05 07:03:03;;;;;;;8.20;1.85;;;;;;;4.83;81.90;100696.03;5263871;28;20100;-70
2021/04/05 07:06:05;;;;;;;6.60;2.13;;;;;;;4.84;81.58;100701.09;5264753;28;20111;-71
2021/04/05 07:08:49;;;;;;;6.03;1.58;;;;;;;4.81;80.44;100696.13;5265046;28;20028;-71
2021/04/05 07:11:36;;;;;;;5.82;1.65;;;;;;;4.76;81.19;100705.94;5263605;28;20033;-71
2021/04/05 07:14:26;;;;;;;7.25;1.50;;;;;;;4.76;81.27;100718.09;5264518;28;20024;-71
2021/04/05 07:17:12;;;;;;;6.88;1.60;;;;;;;4.76;81.55;100718.94;5264401;28;20486;-71
2021/04/05 07:20:00;;;;;;;4.43;1.20;;;;;;;4.75;80.96;100726.81;5265947;28;20091;-71
2021/04/05 07:22:42;;;;;;;6.22;1.92;;;;;;;4.72;81.16;100727.00;5264861;28;20021;-72
2021/04/05 07:25:43;;;;;;;8.07;1.88;;;;;;;4.73;81.43;100729.50;5263084;28;20140;-71
2021/04/05 07:28:18;;;;;;;5.47;1.38;;;;;;;4.69;80.77;100737.56;5264032;28;20537;-72
2021/04/05 07:31:02;;;;;;;10.55;2.10;;;;;;;4.78;81.05;100742.22;5265283;28;20493;-73
2021/04/05 07:33:38;;;;;;;9.13;1.70;;;;;;;4.66;82.38;100742.94;5266563;28;20424;-73
2021/04/05 07:36:29;;;;;;;9.60;2.00;;;;;;;4.68;82.81;100754.06;5262907;28;20041;-71
2021/04/05 07:39:10;;;;;;;6.88;1.60;;;;;;;4.63;80.70;100762.16;5262520;28;20513;-71
2021/04/05 07:42:01;;;;;;;5.68;1.33;;;;;;;4.72;80.64;100773.72;5262121;28;20107;-71
2021/04/05 07:44:55;;;;;;;6.30;1.45;;;;;;;4.60;79.83;100785.69;5264441;28;20056;-71
2021/04/05 07:47:45;;;;;;;5.90;1.73;;;;;;;4.57;79.72;100784.09;5268270;28;20012;-71
2021/04/05 07:50:28;;;;;;;7.60;2.05;;;;;;;4.47;81.04;100806.34;5269893;28;20053;-71
2021/04/05 07:53:11;;;;;;;11.98;2.05;;;;;;;4.34;81.59;100805.41;5267008;28;20032;-74
2021/04/05 07:55:43;;;;;;;6.67;1.93;;;;;;;4.25;81.78;100837.91;5269831;28;20028;-70
2021/04/05 07:58:22;;;;;;;5.35;1.30;;;;;;;4.12;80.27;100837.78;5268033;28;20279;-71
2021/04/05 08:01:17;;;;;;;9.52;1.60;;;;;;;4.08;78.74;100840.63;5248277;28;20032;-69
2021/04/05 08:04:13;;;;;;;10.25;1.60;;;;;;;3.98;77.72;100848.13;5268402;28;20032;-69
2021/04/05 08:06:56;;;;;;;7.03;1.60;;;;;;;3.96;77.59;100852.53;5267713;28;20036;-69
2021/04/05 08:09:37;;;;;;;7.20;1.70;;;;;;;3.89;76.92;100871.94;5266523;28;20024;-69
2021/04/05 08:12:28;;;;;;;11.20;1.92;;;;;;;3.85;76.19;100889.44;5267200;28;20092;-70
2021/04/05 08:15:02;;;;;;;11.68;2.83;;;;;;;3.81;74.83;100902.66;5267291;28;20077;-69
2021/04/05 08:17:53;;;;;;;12.90;2.72;;;;;;;3.70;75.91;100894.63;5267832;28;20063;-69
2021/04/05 08:20:37;;;;;;;15.02;2.47;;;;;;;3.78;75.32;100900.22;5267570;28;20020;-70
2021/04/05 08:23:40;;;;;;;10.40;2.17;;;;;;;3.74;76.75;100909.91;5268455;28;20126;-69
2021/04/05 08:26:38;;;;;;;13.65;2.67;;;;;;;3.73;75.74;100922.97;5263004;28;20036;-69
2021/04/05 08:29:15;;;;;;;8.98;2.42;;;;;;;3.68;74.80;100928.41;5259759;28;20470;-69
2021/04/05 08:31:58;;;;;;;18.60;3.42;;;;;;;3.70;75.50;100928.31;5256707;28;20087;-69
2021/04/05 08:34:54;;;;;;;11.60;2.58;;;;;;;3.77;75.52;100934.84;5257797;28;20045;-70
2021/04/05 08:37:53;;;;;;;13.80;2.83;;;;;;;3.74;75.72;100935.00;5265967;28;20044;-69
2021/04/05 08:40:29;;;;;;;19.02;3.58;;;;;;;3.63;75.48;100953.72;5266065;28;20107;-69
2021/04/05 08:43:23;;;;;;;17.25;2.63;;;;;;;3.57;73.92;100952.31;5266445;28;20549;-68
2021/04/05 08:46:30;;;;;;;19.73;3.25;;;;;;;3.41;73.96;100943.69;5266610;28;20036;-69
2021/04/05 08:49:08;;;;;;;13.63;2.65;;;;;;;3.30;73.28;100944.25;5266798;28;20025;-68
2021/04/05 08:51:47;;;;;;;13.95;2.97;;;;;;;3.27;72.65;100951.34;5267089;28;20056;-68
2021/04/05 08:54:23;;;;;;;14.77;2.45;;;;;;;3.24;72.87;100967.88;5262056;28;20032;-69
2021/04/05 08:56:59;;;;;;;18.17;3.17;;;;;;;3.28;72.45;100965.97;5262688;28;20020;-69
2021/04/05 08:59:38;;;;;;;16.17;3.03;;;;;;;3.33;73.58;100971.72;5264678;28;20028;-69
2021/04/05 09:02:36;;;;;;;12.05;2.67;;;;;;;3.47;73.63;100968.41;5264249;28;21154;-69
2021/04/05 09:05:10;;;;;;;18.48;2.72;;;;;;;3.40;75.11;100952.38;5263237;28;20029;-69
2021/04/05 09:08:05;;;;;;;16.20;2.70;;;;;;;3.48;73.14;100959.72;5266013;28;20028;-69
2021/04/05 09:10:49;;;;;;;9.30;2.38;;;;;;;3.49;72.95;100970.03;5263868;28;20362;-71
2021/04/05 09:13:42;;;;;;;16.77;2.80;;;;;;;3.39;73.42;100985.19;5264053;28;20443;-68
2021/04/05 09:16:26;;;;;;;10.55;2.78;;;;;;;3.27;72.31;101018.66;5267490;28;20044;-70
2021/04/05 09:19:35;;;;;;;11.07;1.77;;;;;;;3.28;71.62;101012.56;5265087;28;20036;-70
2021/04/05 09:22:34;;;;;;;8.88;1.60;;;;;;;3.20;71.52;100994.00;5265814;28;20044;-70
2021/04/05 09:25:43;;;;;;;6.95;1.67;;;;;;;3.36;70.49;100982.75;5262985;28;20095;-70
2021/04/05 09:28:52;;;;;;;8.35;1.77;;;;;;;3.51;71.16;100986.31;5263986;28;20142;-70
2021/04/05 09:31:55;;;;;;;9.35;2.45;;;;;;;3.72;70.54;100983.50;5261788;28;20111;-68
2021/04/05 09:34:51;;;;;;;3.88;1.10;;;;;;;3.78;68.73;100994.34;5265410;28;20041;-69
2021/04/05 09:37:37;;;;;;;5.85;1.40;;;;;;;3.90;69.47;100987.66;5256429;28;20020;-69
2021/04/05 09:40:30;;;;;;;6.38;1.42;;;;;;;4.07;67.11;100989.34;5262567;28;20024;-69
2021/04/05 09:43:31;;;;;;;10.55;1.75;;;;;;;4.13;65.96;100997.63;5265870;28;20397;-68
2021/04/05 09:46:28;;;;;;;10.55;2.25;;;;;;;4.00;66.14;101003.56;5263968;28;20029;-68
2021/04/05 09:49:16;;;;;;;9.30;1.98;;;;;;;4.00;67.50;101013.91;5265323;28;20077;-68
2021/04/05 09:52:05;;;;;;;4.85;1.35;;;;;;;3.95;67.17;101031.50;5262702;28;20028;-68
2021/04/05 09:54:38;;;;;;;7.10;1.40;;;;;;;4.02;68.02;101036.25;5260839;28;21081;-68
2021/04/05 09:57:22;;;;;;;11.85;2.17;;;;;;;4.13;66.54;101044.28;5260567;28;20098;-68
2021/04/05 09:59:56;;;;;;;9.48;1.52;;;;;;;4.18;68.44;101054.41;5257336;28;20032;-68
2021/04/05 10:02:34;;;;;;;3.65;1.02;;;;;;;4.13;65.56;101062.44;5257093;28;20017;-68
2021/04/05 10:05:09;;;;;;;2.47;0.85;;;;;;;3.93;64.74;101086.00;5256149;28;20036;-68
2021/04/05 10:07:46;;;;;;;5.80;1.13;;;;;;;3.75;65.80;101076.59;5261197;28;20036;-68
2021/04/05 10:10:20;;;;;;;6.40;1.10;;;;;;;3.74;63.32;101069.75;5265929;28;20024;-68
2021/04/05 10:12:57;;;;;;;5.38;1.50;;;;;;;3.82;62.50;101075.34;5266015;28;20024;-69
2021/04/05 10:15:29;;;;;;;3.97;1.10;;;;;;;3.89;58.48;101079.28;5259016;28;20060;-69
2021/04/05 10:18:06;;;;;;;5.40;0.95;;;;;;;4.04;61.25;101083.66;5261840;28;20056;-68
2021/04/05 10:20:38;;;;;;;6.25;1.30;;;;;;;4.18;60.22;101082.09;5259189;28;20060;-68
2021/04/05 10:23:11;;;;;;;7.15;1.52;;;;;;;4.24;58.54;101079.97;5264121;28;20035;-68
2021/04/05 10:25:43;;;;;;;9.23;1.38;;;;;;;4.39;58.91;101089.56;5245495;28;20500;-68
2021/04/05 10:28:16;;;;;;;6.80;1.20;;;;;;;4.48;58.05;101085.59;5265487;28;20056;-69
2021/04/05 10:30:54;;;;;;;10.07;2.13;;;;;;;4.51;57.78;101090.63;5260698;28;20036;-68
2021/04/05 10:33:30;;;;;;;11.05;1.85;;;;;;;4.49;58.23;101086.44;5265534;28;20389;-70
2021/04/05 10:36:07;;;;;;;8.88;1.98;;;;;;;4.49;56.53;101083.84;5264343;28;20058;-69
2021/04/05 10:38:39;;;;;;;8.93;1.83;;;;;;;4.56;58.65;101092.97;5263357;28;20032;-70
2021/04/05 10:41:12;;;;;;;7.50;1.60;;;;;;;4.64;56.93;101101.97;5264977;28;20021;-68
2021/04/05 10:43:55;;;;;;;11.00;2.15;;;;;;;4.75;56.40;101082.38;5263013;28;20028;-69
2021/04/05 10:46:31;;;;;;;4.57;1.63;;;;;;;4.77;54.38;101090.91;5261149;28;20044;-70
2021/04/05 10:49:12;;;;;;;6.10;1.73;;;;;;;4.83;55.28;101082.78;5259539;28;20067;-69
2021/04/05 10:51:48;;;;;;;13.80;2.28;;;;;;;4.91;53.58;101072.78;5255673;28;20049;-71
2021/04/05 10:54:40;;;;;;;7.28;1.38;;;;;;;5.05;48.93;101085.00;5241934;28;20151;-69
2021/04/05 10:57:16;;;;;;;5.60;1.58;;;;;;;4.93;48.13;101089.13;5263979;28;20040;-69
2021/04/05 10:59:52;;;;;;;9.38;1.98;;;;;;;4.95;47.28;101089.84;5239729;28;20028;-68
2021/04/05 11:02:37;;;;;;;8.90;2.50;;;;;;;4.87;47.84;101095.50;5245757;28;20385;-71
2021/04/05 11:05:16;;;;;;;14.70;2.53;;;;;;;5.01;49.51;101096.47;5261242;28;20056;-69
2021/04/05 11:07:56;;;;;;;9.93;2.10;;;;;;;5.18;48.89;101114.50;5266623;28;20036;-70
2021/04/05 11:10:30;;;;;;;13.45;2.22;;;;;;;5.17;48.26;101109.41;5263010;28;20029;-69
2021/04/05 11:13:09;;;;;;;8.00;1.65;;;;;;;5.25;47.28;101105.44;5265359;28;20072;-69
2021/04/05 11:15:43;;;;;;;11.05;2.00;;;;;;;5.22;46.85;101103.00;5241449;28;20040;-69
2021/04/05 11:18:18;;;;;;;5.00;1.60;;;;;;;5.17;44.87;101106.81;5265325;28;20036;-70
2021/04/05 11:20:55;;;;;;;6.07;2.08;;;;;;;5.21;47.39;101116.09;5264443;28;20096;-69
2021/04/05 11:23:34;;;;;;;8.88;1.70;;;;;;;5.40;46.75;101132.28;5268473;28;20151;-70
2021/04/05 11:26:07;;;;;;;8.00;1.60;;;;;;;5.63;44.66;101136.13;5267775;28;20124;-70
2021/04/05 11:28:41;;;;;;;11.90;1.70;;;;;;;5.56;42.50;101135.63;5266617;28;20115;-69
2021/04/05 11:31:16;;;;;;;7.25;1.63;;;;;;;5.53;43.12;101151.44;5262936;28;20032;-70
2021/04/05 11:33:55;;;;;;;7.95;1.70;;;;;;;5.50;43.54;101138.63;5262291;28;20036;-70
2021/04/05 11:36:38;;;;;;;7.63;1.80;;;;;;;5.77;41.27;101137.91;5268847;28;20028;-70
2021/04/05 11:39:13;;;;;;;5.88;1.30;;;;;;;5.73;38.65;101139.84;5268091;28;20031;-69
2021/04/05 11:41:56;;;;;;;5.13;1.45;;;;;;;6.04;41.14;101154.47;5268033;28;20087;-69
2021/04/05 11:44:30;;;;;;;8.98;1.83;;;;;;;5.86;40.21;101139.94;5268937;28;20063;-70
2021/04/05 11:47:02;;;;;;;12.63;2.10;;;;;;;5.41;45.54;101156.50;5265638;28;20394;-69
2021/04/05 11:49:33;;;;;;;4.13;1.20;;;;;;;4.83;48.04;101177.06;5267744;28;20063;-69
2021/04/05 11:52:11;;;;;;;7.40;1.17;;;;;;;4.28;50.97;101181.81;5265272;28;20115;-69
2021/04/05 11:54:50;;;;;;;6.35;1.75;;;;;;;4.00;51.79;101187.59;5264293;28;20040;-70
2021/04/05 11:57:27;;;;;;;7.78;1.65;;;;;;;3.83;51.96;101193.69;5267756;28;20119;-69
2021/04/05 12:00:11;;;;;;;3.17;0.90;;;;;;;3.98;49.67;101182.50;5265388;28;20440;-70
2021/04/05 12:02:56;;;;;;;6.07;1.60;;;;;;;4.09;49.29;101182.81;5266491;28;20483;-69
2021/04/05 12:05:37;;;;;;;4.50;1.05;;;;;;;4.31;46.91;101187.66;5264779;28;20036;-69
2021/04/05 12:08:19;;;;;;;4.55;1.42;;;;;;;4.51;46.66;101188.34;5268140;28;20048;-69
2021/04/05 12:10:54;;;;;;;5.80;1.20;;;;;;;4.72;46.60;101189.78;5266805;28;20035;-69
2021/04/05 12:13:39;;;;;;;6.35;1.30;;;;;;;4.97;47.79;101178.91;5268223;28;20028;-69
2021/04/05 12:16:12;;;;;;;7.15;1.80;;;;;;;5.09;45.80;101177.38;5267551;28;20044;-70
2021/04/05 12:18:49;;;;;;;7.03;1.98;;;;;;;5.34;46.34;101169.84;5266964;28;20082;-69
2021/04/05 12:21:28;;;;;;;5.65;1.10;;;;;;;5.56;45.28;101166.00;5267022;28;20032;-69